sensor_id;sensor_type;location;lat;lon;timestamp;P1;durP1;ratioP1;P2;durP2;ratioP2
29432;SDS011;16405;53.964;13.448;2023-04-24T00:00:56;61.28;;;28.55;;
29432;SDS011;16405;53.964;13.448;2023-04-24T00:03:24;72.40;;;30.02;;
29432;SDS011;16405;53.964;13.448;2023-04-24T00:05:51;61.95;;;27.40;;
29432;SDS011;16405;53.964;13.448;2023-04-24T00:08:17;57.25;;;26.25;;
29432;SDS011;16405;53.964;13.448;2023-04-24T00:10:43;71.88;;;28.10;;
29432;SDS011;16405;53.964;13.448;2023-04-24T00:13:09;62.22;;;27.52;;
29432;SDS011;16405;53.964;13.448;2023-04-24T00:15:35;64.07;;;29.75;;
29432;SDS011;16405;53.964;13.448;2023-04-24T00:18:01;74.72;;;31.45;;
29432;SDS011;16405;53.964;13.448;2023-04-24T00:20:30;63.20;;;29.65;;
29432;SDS011;16405;53.964;13.448;2023-04-24T00:22:57;95.32;;;33.45;;
29432;SDS011;16405;53.964;13.448;2023-04-24T00:25:23;51.83;;;25.42;;
29432;SDS011;16405;53.964;13.448;2023-04-24T00:27:49;61.88;;;29.13;;
29432;SDS011;16405;53.964;13.448;2023-04-24T00:30:15;81.80;;;32.35;;
29432;SDS011;16405;53.964;13.448;2023-04-24T00:32:48;67.90;;;31.23;;
29432;SDS011;16405;53.964;13.448;2023-04-24T00:35:14;84.88;;;32.70;;
29432;SDS011;16405;53.964;13.448;2023-04-24T00:37:40;166.02;;;40.60;;
29432;SDS011;16405;53.964;13.448;2023-04-24T00:40:06;79.57;;;30.88;;
29432;SDS011;16405;53.964;13.448;2023-04-24T00:42:32;154.05;;;34.97;;
29432;SDS011;16405;53.964;13.448;2023-04-24T00:45:01;497.20;;;57.45;;
29432;SDS011;16405;53.964;13.448;2023-04-24T00:47:28;70.53;;;31.45;;
29432;SDS011;16405;53.964;13.448;2023-04-24T00:49:55;766.53;;;64.15;;
29432;SDS011;16405;53.964;13.448;2023-04-24T00:52:20;136.60;;;32.55;;
29432;SDS011;16405;53.964;13.448;2023-04-24T00:54:49;884.00;;;52.42;;
29432;SDS011;16405;53.964;13.448;2023-04-24T00:57:17;342.83;;;40.92;;
29432;SDS011;16405;53.964;13.448;2023-04-24T00:59:43;104.50;;;32.83;;
29432;SDS011;16405;53.964;13.448;2023-04-24T01:02:09;498.90;;;48.35;;
29432;SDS011;16405;53.964;13.448;2023-04-24T01:04:36;72.75;;;30.10;;
29432;SDS011;16405;53.964;13.448;2023-04-24T01:07:02;58.15;;;27.60;;
29432;SDS011;16405;53.964;13.448;2023-04-24T01:09:45;101.68;;;30.67;;
29432;SDS011;16405;53.964;13.448;2023-04-24T01:12:13;54.55;;;25.90;;
29432;SDS011;16405;53.964;13.448;2023-04-24T01:14:40;48.50;;;25.52;;
29432;SDS011;16405;53.964;13.448;2023-04-24T01:17:07;34.47;;;20.00;;
29432;SDS011;16405;53.964;13.448;2023-04-24T01:19:34;49.22;;;26.83;;
29432;SDS011;16405;53.964;13.448;2023-04-24T01:22:01;45.92;;;25.75;;
29432;SDS011;16405;53.964;13.448;2023-04-24T01:24:28;50.22;;;27.27;;
29432;SDS011;16405;53.964;13.448;2023-04-24T01:26:54;49.08;;;27.15;;
29432;SDS011;16405;53.964;13.448;2023-04-24T01:29:20;51.65;;;26.38;;
29432;SDS011;16405;53.964;13.448;2023-04-24T01:31:46;46.85;;;26.10;;
29432;SDS011;16405;53.964;13.448;2023-04-24T01:34:12;54.30;;;26.98;;
29432;SDS011;16405;53.964;13.448;2023-04-24T01:36:39;58.78;;;26.63;;
29432;SDS011;16405;53.964;13.448;2023-04-24T01:39:10;55.72;;;25.77;;
29432;SDS011;16405;53.964;13.448;2023-04-24T01:41:37;54.90;;;26.50;;
29432;SDS011;16405;53.964;13.448;2023-04-24T01:44:02;59.30;;;26.38;;
29432;SDS011;16405;53.964;13.448;2023-04-24T01:46:28;50.72;;;24.65;;
29432;SDS011;16405;53.964;13.448;2023-04-24T01:48:56;58.35;;;26.45;;
29432;SDS011;16405;53.964;13.448;2023-04-24T01:51:26;67.95;;;27.90;;
29432;SDS011;16405;53.964;13.448;2023-04-24T01:53:52;62.03;;;27.77;;
29432;SDS011;16405;53.964;13.448;2023-04-24T01:56:19;54.28;;;25.90;;
29432;SDS011;16405;53.964;13.448;2023-04-24T01:58:46;54.85;;;27.50;;
29432;SDS011;16405;53.964;13.448;2023-04-24T02:01:20;55.42;;;27.15;;
29432;SDS011;16405;53.964;13.448;2023-04-24T02:03:46;45.05;;;21.08;;
29432;SDS011;16405;53.964;13.448;2023-04-24T02:06:12;48.97;;;25.05;;
29432;SDS011;16405;53.964;13.448;2023-04-24T02:08:38;62.85;;;30.50;;
29432;SDS011;16405;53.964;13.448;2023-04-24T02:11:03;64.93;;;30.77;;
29432;SDS011;16405;53.964;13.448;2023-04-24T02:13:29;71.78;;;30.13;;
29432;SDS011;16405;53.964;13.448;2023-04-24T02:15:58;63.80;;;31.38;;
29432;SDS011;16405;53.964;13.448;2023-04-24T02:18:24;63.95;;;30.63;;
29432;SDS011;16405;53.964;13.448;2023-04-24T02:20:50;77.38;;;32.83;;
29432;SDS011;16405;53.964;13.448;2023-04-24T02:23:15;62.45;;;32.30;;
29432;SDS011;16405;53.964;13.448;2023-04-24T02:25:41;70.30;;;33.30;;
29432;SDS011;16405;53.964;13.448;2023-04-24T02:28:07;75.97;;;35.30;;
29432;SDS011;16405;53.964;13.448;2023-04-24T02:30:42;72.88;;;36.95;;
29432;SDS011;16405;53.964;13.448;2023-04-24T02:33:08;55.67;;;25.45;;
29432;SDS011;16405;53.964;13.448;2023-04-24T02:35:34;69.28;;;34.55;;
29432;SDS011;16405;53.964;13.448;2023-04-24T02:38:00;60.00;;;29.85;;
29432;SDS011;16405;53.964;13.448;2023-04-24T02:40:33;82.03;;;34.63;;
29432;SDS011;16405;53.964;13.448;2023-04-24T02:42:59;75.30;;;34.75;;
29432;SDS011;16405;53.964;13.448;2023-04-24T02:45:25;59.83;;;28.33;;
29432;SDS011;16405;53.964;13.448;2023-04-24T02:47:51;73.90;;;34.30;;
29432;SDS011;16405;53.964;13.448;2023-04-24T02:50:17;70.88;;;31.90;;
29432;SDS011;16405;53.964;13.448;2023-04-24T02:52:50;75.10;;;32.80;;
29432;SDS011;16405;53.964;13.448;2023-04-24T02:55:16;71.75;;;33.88;;
29432;SDS011;16405;53.964;13.448;2023-04-24T02:57:42;72.78;;;34.15;;
29432;SDS011;16405;53.964;13.448;2023-04-24T03:00:08;82.75;;;35.00;;
29432;SDS011;16405;53.964;13.448;2023-04-24T03:02:34;70.57;;;34.20;;
29432;SDS011;16405;53.964;13.448;2023-04-24T03:05:03;72.10;;;34.10;;
29432;SDS011;16405;53.964;13.448;2023-04-24T03:07:29;67.32;;;32.80;;
29432;SDS011;16405;53.964;13.448;2023-04-24T03:09:56;57.25;;;30.10;;
29432;SDS011;16405;53.964;13.448;2023-04-24T03:12:23;58.30;;;29.25;;
29432;SDS011;16405;53.964;13.448;2023-04-24T03:14:56;57.90;;;28.00;;
29432;SDS011;16405;53.964;13.448;2023-04-24T03:17:22;59.78;;;29.95;;
29432;SDS011;16405;53.964;13.448;2023-04-24T03:19:48;62.25;;;30.30;;
29432;SDS011;16405;53.964;13.448;2023-04-24T03:22:14;64.28;;;31.92;;
29432;SDS011;16405;53.964;13.448;2023-04-24T03:24:39;64.90;;;30.27;;
29432;SDS011;16405;53.964;13.448;2023-04-24T03:27:05;59.95;;;29.27;;
29432;SDS011;16405;53.964;13.448;2023-04-24T03:29:34;61.25;;;31.05;;
29432;SDS011;16405;53.964;13.448;2023-04-24T03:31:59;57.05;;;27.52;;
29432;SDS011;16405;53.964;13.448;2023-04-24T03:34:25;64.38;;;28.92;;
29432;SDS011;16405;53.964;13.448;2023-04-24T03:36:51;53.28;;;26.85;;
29432;SDS011;16405;53.964;13.448;2023-04-24T03:39:17;52.45;;;27.70;;
29432;SDS011;16405;53.964;13.448;2023-04-24T03:41:43;48.72;;;26.17;;
29432;SDS011;16405;53.964;13.448;2023-04-24T03:44:11;52.20;;;26.63;;
29432;SDS011;16405;53.964;13.448;2023-04-24T03:46:37;45.67;;;24.73;;
29432;SDS011;16405;53.964;13.448;2023-04-24T03:49:03;46.88;;;23.92;;
29432;SDS011;16405;53.964;13.448;2023-04-24T03:51:29;48.72;;;25.80;;
29432;SDS011;16405;53.964;13.448;2023-04-24T03:53:56;39.67;;;21.05;;
29432;SDS011;16405;53.964;13.448;2023-04-24T03:56:22;33.05;;;21.60;;
29432;SDS011;16405;53.964;13.448;2023-04-24T03:58:48;37.85;;;21.63;;
29432;SDS011;16405;53.964;13.448;2023-04-24T04:01:23;35.55;;;20.98;;
29432;SDS011;16405;53.964;13.448;2023-04-24T04:03:49;32.42;;;18.52;;
29432;SDS011;16405;53.964;13.448;2023-04-24T04:06:15;25.40;;;14.48;;
29432;SDS011;16405;53.964;13.448;2023-04-24T04:08:48;29.83;;;17.45;;
29432;SDS011;16405;53.964;13.448;2023-04-24T04:11:14;26.92;;;16.27;;
29432;SDS011;16405;53.964;13.448;2023-04-24T04:13:40;20.33;;;14.77;;
29432;SDS011;16405;53.964;13.448;2023-04-24T04:16:05;20.27;;;14.48;;
29432;SDS011;16405;53.964;13.448;2023-04-24T04:18:31;20.80;;;13.43;;
29432;SDS011;16405;53.964;13.448;2023-04-24T04:21:04;21.40;;;13.93;;
29432;SDS011;16405;53.964;13.448;2023-04-24T04:23:30;20.88;;;14.18;;
29432;SDS011;16405;53.964;13.448;2023-04-24T04:25:56;16.70;;;12.75;;
29432;SDS011;16405;53.964;13.448;2023-04-24T04:28:23;19.65;;;13.00;;
29432;SDS011;16405;53.964;13.448;2023-04-24T04:30:49;14.90;;;10.98;;
29432;SDS011;16405;53.964;13.448;2023-04-24T04:33:22;16.23;;;10.50;;
29432;SDS011;16405;53.964;13.448;2023-04-24T04:35:49;16.67;;;11.05;;
29432;SDS011;16405;53.964;13.448;2023-04-24T04:38:19;14.60;;;9.88;;
29432;SDS011;16405;53.964;13.448;2023-04-24T04:40:48;16.95;;;11.02;;
29432;SDS011;16405;53.964;13.448;2023-04-24T04:43:14;14.70;;;10.68;;
29432;SDS011;16405;53.964;13.448;2023-04-24T04:45:41;17.65;;;10.38;;
29432;SDS011;16405;53.964;13.448;2023-04-24T04:48:08;17.15;;;10.68;;
29432;SDS011;16405;53.964;13.448;2023-04-24T04:50:37;15.48;;;10.85;;
29432;SDS011;16405;53.964;13.448;2023-04-24T04:53:03;18.73;;;12.18;;
29432;SDS011;16405;53.964;13.448;2023-04-24T04:55:30;19.60;;;13.00;;
29432;SDS011;16405;53.964;13.448;2023-04-24T04:57:56;17.95;;;11.85;;
29432;SDS011;16405;53.964;13.448;2023-04-24T05:00:22;18.55;;;10.55;;
29432;SDS011;16405;53.964;13.448;2023-04-24T05:02:58;18.92;;;12.45;;
29432;SDS011;16405;53.964;13.448;2023-04-24T05:05:25;16.92;;;12.73;;
29432;SDS011;16405;53.964;13.448;2023-04-24T05:07:50;18.48;;;12.57;;
29432;SDS011;16405;53.964;13.448;2023-04-24T05:10:19;10.95;;;8.05;;
29432;SDS011;16405;53.964;13.448;2023-04-24T05:12:48;18.95;;;11.18;;
29432;SDS011;16405;53.964;13.448;2023-04-24T05:15:14;16.75;;;12.07;;
29432;SDS011;16405;53.964;13.448;2023-04-24T05:17:40;18.65;;;11.73;;
29432;SDS011;16405;53.964;13.448;2023-04-24T05:20:06;16.10;;;11.45;;
29432;SDS011;16405;53.964;13.448;2023-04-24T05:22:33;21.02;;;12.20;;
29432;SDS011;16405;53.964;13.448;2023-04-24T05:25:03;19.50;;;12.45;;
29432;SDS011;16405;53.964;13.448;2023-04-24T05:27:29;21.67;;;13.77;;
29432;SDS011;16405;53.964;13.448;2023-04-24T05:29:55;18.48;;;12.70;;
29432;SDS011;16405;53.964;13.448;2023-04-24T05:32:21;15.45;;;10.88;;
29432;SDS011;16405;53.964;13.448;2023-04-24T05:34:47;19.77;;;13.27;;
29432;SDS011;16405;53.964;13.448;2023-04-24T05:37:15;21.42;;;14.07;;
29432;SDS011;16405;53.964;13.448;2023-04-24T05:39:44;18.67;;;13.50;;
29432;SDS011;16405;53.964;13.448;2023-04-24T05:42:09;19.65;;;13.88;;
29432;SDS011;16405;53.964;13.448;2023-04-24T05:44:35;22.95;;;12.95;;
29432;SDS011;16405;53.964;13.448;2023-04-24T05:47:01;20.10;;;14.15;;
29432;SDS011;16405;53.964;13.448;2023-04-24T05:49:27;20.80;;;15.48;;
29432;SDS011;16405;53.964;13.448;2023-04-24T05:51:55;20.85;;;14.88;;
29432;SDS011;16405;53.964;13.448;2023-04-24T05:54:22;22.25;;;15.05;;
29432;SDS011;16405;53.964;13.448;2023-04-24T05:56:48;21.20;;;15.95;;
29432;SDS011;16405;53.964;13.448;2023-04-24T05:59:15;22.55;;;15.40;;
29432;SDS011;16405;53.964;13.448;2023-04-24T06:01:41;27.23;;;16.33;;
29432;SDS011;16405;53.964;13.448;2023-04-24T06:04:07;24.88;;;15.85;;
29432;SDS011;16405;53.964;13.448;2023-04-24T06:06:37;22.50;;;16.08;;
29432;SDS011;16405;53.964;13.448;2023-04-24T06:09:03;23.48;;;15.98;;
29432;SDS011;16405;53.964;13.448;2023-04-24T06:11:29;27.23;;;16.85;;
29432;SDS011;16405;53.964;13.448;2023-04-24T06:13:55;29.35;;;17.67;;
29432;SDS011;16405;53.964;13.448;2023-04-24T06:16:21;25.48;;;16.70;;
29432;SDS011;16405;53.964;13.448;2023-04-24T06:18:47;25.45;;;17.60;;
29432;SDS011;16405;53.964;13.448;2023-04-24T06:21:18;25.20;;;16.95;;
29432;SDS011;16405;53.964;13.448;2023-04-24T06:23:43;26.30;;;17.35;;
29432;SDS011;16405;53.964;13.448;2023-04-24T06:26:11;23.48;;;16.23;;
29432;SDS011;16405;53.964;13.448;2023-04-24T06:28:37;28.70;;;17.45;;
29432;SDS011;16405;53.964;13.448;2023-04-24T06:31:02;27.83;;;19.00;;
29432;SDS011;16405;53.964;13.448;2023-04-24T06:33:36;27.15;;;17.98;;
29432;SDS011;16405;53.964;13.448;2023-04-24T06:36:02;30.23;;;18.83;;
29432;SDS011;16405;53.964;13.448;2023-04-24T06:38:29;26.30;;;17.52;;
29432;SDS011;16405;53.964;13.448;2023-04-24T06:40:54;28.90;;;18.35;;
29432;SDS011;16405;53.964;13.448;2023-04-24T06:43:29;26.17;;;18.35;;
29432;SDS011;16405;53.964;13.448;2023-04-24T06:45:55;27.33;;;18.65;;
29432;SDS011;16405;53.964;13.448;2023-04-24T06:48:31;29.67;;;19.35;;
29432;SDS011;16405;53.964;13.448;2023-04-24T06:50:56;26.95;;;19.13;;
29432;SDS011;16405;53.964;13.448;2023-04-24T06:53:22;28.67;;;18.88;;
29432;SDS011;16405;53.964;13.448;2023-04-24T06:55:48;27.40;;;18.95;;
29432;SDS011;16405;53.964;13.448;2023-04-24T06:58:14;24.27;;;17.80;;
29432;SDS011;16405;53.964;13.448;2023-04-24T07:00:40;25.45;;;18.40;;
29432;SDS011;16405;53.964;13.448;2023-04-24T07:03:08;26.33;;;17.20;;
29432;SDS011;16405;53.964;13.448;2023-04-24T07:05:34;24.10;;;17.50;;
29432;SDS011;16405;53.964;13.448;2023-04-24T07:08:03;22.73;;;16.00;;
29432;SDS011;16405;53.964;13.448;2023-04-24T07:10:29;23.40;;;15.82;;
29432;SDS011;16405;53.964;13.448;2023-04-24T07:12:55;19.45;;;14.85;;
29432;SDS011;16405;53.964;13.448;2023-04-24T07:15:26;16.38;;;13.52;;
29432;SDS011;16405;53.964;13.448;2023-04-24T07:17:52;16.75;;;13.23;;
29432;SDS011;16405;53.964;13.448;2023-04-24T07:20:18;15.98;;;12.90;;
29432;SDS011;16405;53.964;13.448;2023-04-24T07:22:44;19.73;;;12.98;;
29432;SDS011;16405;53.964;13.448;2023-04-24T07:25:10;13.93;;;11.25;;
29432;SDS011;16405;53.964;13.448;2023-04-24T07:27:35;13.10;;;11.00;;
29432;SDS011;16405;53.964;13.448;2023-04-24T07:30:04;12.98;;;10.25;;
29432;SDS011;16405;53.964;13.448;2023-04-24T07:32:31;12.18;;;10.43;;
29432;SDS011;16405;53.964;13.448;2023-04-24T07:34:57;15.55;;;9.68;;
29432;SDS011;16405;53.964;13.448;2023-04-24T07:37:23;10.82;;;9.65;;
29432;SDS011;16405;53.964;13.448;2023-04-24T07:39:49;11.55;;;10.07;;
29432;SDS011;16405;53.964;13.448;2023-04-24T07:42:15;12.02;;;9.20;;
29432;SDS011;16405;53.964;13.448;2023-04-24T07:44:43;14.05;;;8.93;;
29432;SDS011;16405;53.964;13.448;2023-04-24T07:47:11;13.52;;;9.45;;
29432;SDS011;16405;53.964;13.448;2023-04-24T07:49:37;9.98;;;8.15;;
29432;SDS011;16405;53.964;13.448;2023-04-24T07:52:03;13.25;;;8.88;;
29432;SDS011;16405;53.964;13.448;2023-04-24T07:54:29;10.48;;;8.80;;
29432;SDS011;16405;53.964;13.448;2023-04-24T07:56:55;11.23;;;9.38;;
29432;SDS011;16405;53.964;13.448;2023-04-24T07:59:21;14.07;;;8.80;;
29432;SDS011;16405;53.964;13.448;2023-04-24T08:01:49;9.93;;;7.28;;
29432;SDS011;16405;53.964;13.448;2023-04-24T08:04:15;12.57;;;7.63;;
29432;SDS011;16405;53.964;13.448;2023-04-24T08:06:41;9.00;;;6.63;;
29432;SDS011;16405;53.964;13.448;2023-04-24T08:09:06;10.43;;;4.90;;
29432;SDS011;16405;53.964;13.448;2023-04-24T08:13:58;4.95;;;2.95;;
29432;SDS011;16405;53.964;13.448;2023-04-24T08:16:24;12.07;;;2.55;;
29432;SDS011;16405;53.964;13.448;2023-04-24T08:18:50;4.35;;;2.70;;
29432;SDS011;16405;53.964;13.448;2023-04-24T08:21:18;4.90;;;2.75;;
29432;SDS011;16405;53.964;13.448;2023-04-24T08:23:45;11.80;;;4.95;;
29432;SDS011;16405;53.964;13.448;2023-04-24T08:26:11;4.95;;;2.67;;
29432;SDS011;16405;53.964;13.448;2023-04-24T08:28:38;4.55;;;3.20;;
29432;SDS011;16405;53.964;13.448;2023-04-24T08:31:04;6.93;;;2.97;;
29432;SDS011;16405;53.964;13.448;2023-04-24T08:33:35;6.07;;;2.80;;
29432;SDS011;16405;53.964;13.448;2023-04-24T08:36:01;7.78;;;2.75;;
29432;SDS011;16405;53.964;13.448;2023-04-24T08:38:29;5.80;;;2.80;;
29432;SDS011;16405;53.964;13.448;2023-04-24T08:40:56;4.65;;;2.75;;
29432;SDS011;16405;53.964;13.448;2023-04-24T08:43:26;3.22;;;2.67;;
29432;SDS011;16405;53.964;13.448;2023-04-24T08:45:55;6.18;;;2.60;;
29432;SDS011;16405;53.964;13.448;2023-04-24T08:48:22;3.45;;;2.50;;
29432;SDS011;16405;53.964;13.448;2023-04-24T08:50:50;4.90;;;2.53;;
29432;SDS011;16405;53.964;13.448;2023-04-24T08:53:19;3.72;;;2.58;;
29432;SDS011;16405;53.964;13.448;2023-04-24T08:55:46;3.75;;;2.22;;
29432;SDS011;16405;53.964;13.448;2023-04-24T08:58:13;4.95;;;2.28;;
29432;SDS011;16405;53.964;13.448;2023-04-24T09:00:49;2.37;;;1.83;;
29432;SDS011;16405;53.964;13.448;2023-04-24T09:03:15;4.57;;;2.10;;
29432;SDS011;16405;53.964;13.448;2023-04-24T09:05:43;2.50;;;2.00;;
29432;SDS011;16405;53.964;13.448;2023-04-24T09:08:14;4.88;;;1.88;;
29432;SDS011;16405;53.964;13.448;2023-04-24T09:10:44;3.03;;;2.00;;
29432;SDS011;16405;53.964;13.448;2023-04-24T09:13:10;2.17;;;1.92;;
29432;SDS011;16405;53.964;13.448;2023-04-24T09:15:46;2.30;;;2.10;;
29432;SDS011;16405;53.964;13.448;2023-04-24T09:18:13;3.28;;;2.13;;
29432;SDS011;16405;53.964;13.448;2023-04-24T09:23:31;2.45;;;1.88;;
29432;SDS011;16405;53.964;13.448;2023-04-24T09:26:01;2.67;;;2.13;;
29432;SDS011;16405;53.964;13.448;2023-04-24T09:31:17;3.45;;;2.20;;
29432;SDS011;16405;53.964;13.448;2023-04-24T09:36:36;3.30;;;2.00;;
29432;SDS011;16405;53.964;13.448;2023-04-24T09:39:11;3.10;;;2.00;;
29432;SDS011;16405;53.964;13.448;2023-04-24T09:44:19;1.90;;;1.50;;
29432;SDS011;16405;53.964;13.448;2023-04-24T09:46:55;2.35;;;1.77;;
29432;SDS011;16405;53.964;13.448;2023-04-24T09:49:27;5.68;;;1.10;;
29432;SDS011;16405;53.964;13.448;2023-04-24T09:52:05;1.48;;;1.05;;
29432;SDS011;16405;53.964;13.448;2023-04-24T09:54:40;3.10;;;1.23;;
29432;SDS011;16405;53.964;13.448;2023-04-24T09:57:08;2.63;;;1.10;;
29432;SDS011;16405;53.964;13.448;2023-04-24T09:59:35;3.63;;;1.17;;
29432;SDS011;16405;53.964;13.448;2023-04-24T10:02:16;2.97;;;1.20;;
29432;SDS011;16405;53.964;13.448;2023-04-24T10:04:56;2.80;;;1.20;;
29432;SDS011;16405;53.964;13.448;2023-04-24T10:07:26;3.85;;;1.08;;
29432;SDS011;16405;53.964;13.448;2023-04-24T10:09:52;1.27;;;0.93;;
29432;SDS011;16405;53.964;13.448;2023-04-24T10:12:19;1.95;;;0.80;;
29432;SDS011;16405;53.964;13.448;2023-04-24T10:14:52;1.95;;;1.00;;
29432;SDS011;16405;53.964;13.448;2023-04-24T10:17:22;3.45;;;1.13;;
29432;SDS011;16405;53.964;13.448;2023-04-24T10:19:51;2.15;;;1.00;;
29432;SDS011;16405;53.964;13.448;2023-04-24T10:22:24;1.60;;;1.10;;
29432;SDS011;16405;53.964;13.448;2023-04-24T10:24:50;2.22;;;0.90;;
29432;SDS011;16405;53.964;13.448;2023-04-24T10:27:24;3.33;;;1.23;;
29432;SDS011;16405;53.964;13.448;2023-04-24T10:29:52;2.40;;;1.33;;
29432;SDS011;16405;53.964;13.448;2023-04-24T10:32:19;1.05;;;0.93;;
29432;SDS011;16405;53.964;13.448;2023-04-24T10:34:45;2.22;;;1.23;;
29432;SDS011;16405;53.964;13.448;2023-04-24T10:37:14;3.40;;;1.23;;
29432;SDS011;16405;53.964;13.448;2023-04-24T10:39:43;1.15;;;1.00;;
29432;SDS011;16405;53.964;13.448;2023-04-24T10:42:18;2.67;;;1.00;;
29432;SDS011;16405;53.964;13.448;2023-04-24T10:44:47;1.33;;;1.08;;
29432;SDS011;16405;53.964;13.448;2023-04-24T10:47:14;2.15;;;1.23;;
29432;SDS011;16405;53.964;13.448;2023-04-24T10:49:44;2.63;;;1.10;;
29432;SDS011;16405;53.964;13.448;2023-04-24T10:52:15;3.40;;;1.17;;
29432;SDS011;16405;53.964;13.448;2023-04-24T10:54:42;2.03;;;1.15;;
29432;SDS011;16405;53.964;13.448;2023-04-24T11:02:39;1.10;;;1.00;;
29432;SDS011;16405;53.964;13.448;2023-04-24T11:05:14;2.58;;;1.20;;
29432;SDS011;16405;53.964;13.448;2023-04-24T11:10:57;2.25;;;1.00;;
29432;SDS011;16405;53.964;13.448;2023-04-24T11:16:31;4.57;;;0.80;;
29432;SDS011;16405;53.964;13.448;2023-04-24T11:24:49;1.42;;;1.10;;
29432;SDS011;16405;53.964;13.448;2023-04-24T11:27:20;2.00;;;0.70;;
29432;SDS011;16405;53.964;13.448;2023-04-24T11:32:27;3.83;;;0.80;;
29432;SDS011;16405;53.964;13.448;2023-04-24T11:37:37;4.10;;;0.95;;
29432;SDS011;16405;53.964;13.448;2023-04-24T11:40:06;1.17;;;0.90;;
29432;SDS011;16405;53.964;13.448;2023-04-24T11:42:38;2.25;;;1.05;;
29432;SDS011;16405;53.964;13.448;2023-04-24T11:45:15;2.83;;;0.90;;
29432;SDS011;16405;53.964;13.448;2023-04-24T11:47:51;1.30;;;0.73;;
29432;SDS011;16405;53.964;13.448;2023-04-24T11:50:24;1.58;;;0.85;;
29432;SDS011;16405;53.964;13.448;2023-04-24T11:52:53;2.55;;;1.02;;
29432;SDS011;16405;53.964;13.448;2023-04-24T11:57:57;1.42;;;0.80;;
29432;SDS011;16405;53.964;13.448;2023-04-24T12:03:11;1.15;;;0.77;;
29432;SDS011;16405;53.964;13.448;2023-04-24T12:05:38;2.95;;;0.75;;
29432;SDS011;16405;53.964;13.448;2023-04-24T12:08:04;4.25;;;1.00;;
29432;SDS011;16405;53.964;13.448;2023-04-24T12:10:36;4.57;;;0.90;;
29432;SDS011;16405;53.964;13.448;2023-04-24T12:13:09;1.05;;;0.70;;
29432;SDS011;16405;53.964;13.448;2023-04-24T12:15:39;1.58;;;0.70;;
29432;SDS011;16405;53.964;13.448;2023-04-24T12:18:06;2.70;;;0.65;;
29432;SDS011;16405;53.964;13.448;2023-04-24T12:20:40;3.05;;;0.80;;
29432;SDS011;16405;53.964;13.448;2023-04-24T12:23:06;2.90;;;0.70;;
29432;SDS011;16405;53.964;13.448;2023-04-24T12:25:35;1.83;;;0.50;;
29432;SDS011;16405;53.964;13.448;2023-04-24T12:30:42;1.10;;;0.60;;
29432;SDS011;16405;53.964;13.448;2023-04-24T12:33:19;3.83;;;0.80;;
29432;SDS011;16405;53.964;13.448;2023-04-24T12:35:53;1.77;;;0.55;;
29432;SDS011;16405;53.964;13.448;2023-04-24T12:38:27;1.45;;;0.68;;
29432;SDS011;16405;53.964;13.448;2023-04-24T12:41:06;1.50;;;0.47;;
29432;SDS011;16405;53.964;13.448;2023-04-24T12:43:40;2.28;;;0.55;;
29432;SDS011;16405;53.964;13.448;2023-04-24T12:46:20;1.13;;;0.40;;
29432;SDS011;16405;53.964;13.448;2023-04-24T12:48:52;0.50;;;0.50;;
29432;SDS011;16405;53.964;13.448;2023-04-24T12:51:20;3.63;;;0.50;;
29432;SDS011;16405;53.964;13.448;2023-04-24T12:53:52;0.80;;;0.50;;
29432;SDS011;16405;53.964;13.448;2023-04-24T12:56:18;5.03;;;0.75;;
29432;SDS011;16405;53.964;13.448;2023-04-24T12:58:44;3.55;;;0.50;;
29432;SDS011;16405;53.964;13.448;2023-04-24T13:01:10;1.15;;;0.60;;
29432;SDS011;16405;53.964;13.448;2023-04-24T13:03:39;3.03;;;0.65;;
29432;SDS011;16405;53.964;13.448;2023-04-24T13:06:08;0.95;;;0.40;;
29432;SDS011;16405;53.964;13.448;2023-04-24T13:08:34;1.95;;;0.60;;
29432;SDS011;16405;53.964;13.448;2023-04-24T13:11:16;0.88;;;0.60;;
29432;SDS011;16405;53.964;13.448;2023-04-24T13:13:52;4.32;;;0.52;;
29432;SDS011;16405;53.964;13.448;2023-04-24T13:16:19;4.07;;;0.40;;
29432;SDS011;16405;53.964;13.448;2023-04-24T13:18:45;1.20;;;0.55;;
29432;SDS011;16405;53.964;13.448;2023-04-24T13:21:11;2.05;;;0.40;;
29432;SDS011;16405;53.964;13.448;2023-04-24T13:23:39;0.57;;;0.40;;
29432;SDS011;16405;53.964;13.448;2023-04-24T13:26:06;9.23;;;0.70;;
29432;SDS011;16405;53.964;13.448;2023-04-24T13:28:32;1.40;;;0.55;;
29432;SDS011;16405;53.964;13.448;2023-04-24T13:30:58;2.47;;;0.30;;
29432;SDS011;16405;53.964;13.448;2023-04-24T13:33:24;0.57;;;0.17;;
29432;SDS011;16405;53.964;13.448;2023-04-24T13:35:50;0.80;;;0.30;;
29432;SDS011;16405;53.964;13.448;2023-04-24T13:38:15;2.20;;;0.20;;
29432;SDS011;16405;53.964;13.448;2023-04-24T13:40:46;2.20;;;0.32;;
29432;SDS011;16405;53.964;13.448;2023-04-24T13:43:12;0.75;;;0.30;;
29432;SDS011;16405;53.964;13.448;2023-04-24T13:45:38;0.90;;;0.40;;
29432;SDS011;16405;53.964;13.448;2023-04-24T13:48:03;0.22;;;0.20;;
29432;SDS011;16405;53.964;13.448;2023-04-24T13:50:29;1.70;;;0.20;;
29432;SDS011;16405;53.964;13.448;2023-04-24T13:52:55;1.45;;;0.30;;
29432;SDS011;16405;53.964;13.448;2023-04-24T13:55:21;2.80;;;0.30;;
29432;SDS011;16405;53.964;13.448;2023-04-24T13:57:47;1.35;;;0.50;;
29432;SDS011;16405;53.964;13.448;2023-04-24T14:00:14;0.30;;;0.20;;
29432;SDS011;16405;53.964;13.448;2023-04-24T14:02:40;0.43;;;0.40;;
29432;SDS011;16405;53.964;13.448;2023-04-24T14:05:06;1.48;;;0.45;;
29432;SDS011;16405;53.964;13.448;2023-04-24T14:07:32;1.05;;;0.60;;
29432;SDS011;16405;53.964;13.448;2023-04-24T14:09:58;1.38;;;0.40;;
29432;SDS011;16405;53.964;13.448;2023-04-24T14:12:24;0.43;;;0.30;;
29432;SDS011;16405;53.964;13.448;2023-04-24T14:14:50;0.40;;;0.30;;
29432;SDS011;16405;53.964;13.448;2023-04-24T14:17:16;0.90;;;0.45;;
29432;SDS011;16405;53.964;13.448;2023-04-24T14:19:42;0.43;;;0.40;;
29432;SDS011;16405;53.964;13.448;2023-04-24T14:22:08;2.08;;;0.30;;
29432;SDS011;16405;53.964;13.448;2023-04-24T14:24:34;0.40;;;0.35;;
29432;SDS011;16405;53.964;13.448;2023-04-24T14:27:01;3.30;;;0.50;;
29432;SDS011;16405;53.964;13.448;2023-04-24T14:29:26;0.63;;;0.40;;
29432;SDS011;16405;53.964;13.448;2023-04-24T14:31:52;0.52;;;0.30;;
29432;SDS011;16405;53.964;13.448;2023-04-24T14:34:18;0.35;;;0.35;;
29432;SDS011;16405;53.964;13.448;2023-04-24T14:36:44;0.35;;;0.20;;
29432;SDS011;16405;53.964;13.448;2023-04-24T14:39:10;0.60;;;0.20;;
29432;SDS011;16405;53.964;13.448;2023-04-24T14:41:36;1.17;;;0.47;;
29432;SDS011;16405;53.964;13.448;2023-04-24T14:44:04;0.28;;;0.20;;
29432;SDS011;16405;53.964;13.448;2023-04-24T14:46:30;2.63;;;0.40;;
29432;SDS011;16405;53.964;13.448;2023-04-24T14:48:56;0.95;;;0.30;;
29432;SDS011;16405;53.964;13.448;2023-04-24T14:51:24;1.05;;;0.30;;
29432;SDS011;16405;53.964;13.448;2023-04-24T14:53:50;0.82;;;0.25;;
29432;SDS011;16405;53.964;13.448;2023-04-24T14:56:16;0.57;;;0.40;;
29432;SDS011;16405;53.964;13.448;2023-04-24T14:58:42;0.93;;;0.30;;
29432;SDS011;16405;53.964;13.448;2023-04-24T15:01:08;0.60;;;0.30;;
29432;SDS011;16405;53.964;13.448;2023-04-24T15:03:34;3.92;;;0.30;;
29432;SDS011;16405;53.964;13.448;2023-04-24T15:06:00;1.35;;;0.43;;
29432;SDS011;16405;53.964;13.448;2023-04-24T15:08:33;1.15;;;0.38;;